createdAt,value
2017-03-13T00:00:42.645Z,1043.58
2017-03-13T00:01:42.629Z,1043.59
2017-03-13T00:02:42.615Z,1043.63
2017-03-13T00:03:42.604Z,1043.6
2017-03-13T00:04:42.585Z,1043.6
2017-03-13T00:05:42.571Z,1043.65
2017-03-13T00:06:42.556Z,1043.66
2017-03-13T00:07:42.542Z,1043.63
2017-03-13T00:08:42.526Z,1043.65
2017-03-13T00:09:42.512Z,1043.66
2017-03-13T00:10:42.496Z,1043.62
2017-03-13T00:11:42.482Z,1043.62
2017-03-13T00:12:42.467Z,1043.63
2017-03-13T00:13:42.453Z,1043.68
2017-03-13T00:14:42.437Z,1043.7
2017-03-13T00:15:42.423Z,1043.67
2017-03-13T00:16:42.407Z,1043.7
2017-03-13T00:17:42.393Z,1043.65
2017-03-13T00:18:42.378Z,1043.66
2017-03-13T00:19:42.365Z,1043.65
2017-03-13T00:20:42.348Z,1043.61
2017-03-13T00:21:42.335Z,1043.64
2017-03-13T00:22:42.318Z,1043.63
2017-03-13T00:23:42.303Z,1043.65
2017-03-13T00:24:42.289Z,1043.67
2017-03-13T00:25:42.274Z,1043.69
2017-03-13T00:26:42.259Z,1043.69
2017-03-13T00:27:42.244Z,1043.75
2017-03-13T00:28:42.230Z,1043.75
2017-03-13T00:29:42.214Z,1043.76
2017-03-13T00:30:42.199Z,1043.75
2017-03-13T00:31:42.185Z,1043.71
2017-03-13T00:32:42.169Z,1043.77
2017-03-13T00:33:42.154Z,1043.8
2017-03-13T00:34:42.141Z,1043.82
2017-03-13T00:35:42.126Z,1043.86
2017-03-13T00:36:42.109Z,1043.92
2017-03-13T00:37:42.096Z,1043.89
2017-03-13T00:38:42.081Z,1043.93
2017-03-13T00:39:42.066Z,1043.92
2017-03-13T00:40:42.051Z,1043.93
2017-03-13T00:41:42.036Z,1043.95
2017-03-13T00:42:42.022Z,1043.92
2017-03-13T00:43:42.006Z,1043.88
2017-03-13T00:44:41.991Z,1043.89
2017-03-13T00:45:41.977Z,1043.91
2017-03-13T00:46:41.962Z,1043.9
2017-03-13T00:47:41.946Z,1043.94
2017-03-13T00:48:41.932Z,1043.94
2017-03-13T00:49:41.917Z,1043.99
2017-03-13T00:50:41.902Z,1044.02
2017-03-13T00:51:41.887Z,1044.02
2017-03-13T00:52:41.872Z,1044
2017-03-13T00:53:41.858Z,1043.99
2017-03-13T00:54:41.842Z,1044
2017-03-13T00:55:41.827Z,1044.01
2017-03-13T00:56:41.813Z,1044.01
2017-03-13T00:57:41.798Z,1044
2017-03-13T00:58:41.782Z,1043.99
2017-03-13T00:59:41.767Z,1043.97
2017-03-13T01:00:41.753Z,1043.95
2017-03-13T01:01:41.740Z,1043.94
2017-03-13T01:02:41.722Z,1043.92
2017-03-13T01:03:41.708Z,1043.92
2017-03-13T01:04:41.693Z,1043.88
2017-03-13T01:05:41.678Z,1043.89
2017-03-13T01:06:41.663Z,1043.93
2017-03-13T01:07:41.648Z,1043.93
2017-03-13T01:08:41.633Z,1043.93
2017-03-13T01:09:41.618Z,1043.87
2017-03-13T01:10:41.603Z,1043.85
2017-03-13T01:11:41.589Z,1043.85
2017-03-13T01:12:41.574Z,1043.89
2017-03-13T01:13:41.559Z,1043.88
2017-03-13T01:14:41.544Z,1043.87
2017-03-13T01:15:41.530Z,1043.83
2017-03-13T01:16:41.514Z,1043.82
2017-03-13T01:17:41.500Z,1043.88
2017-03-13T01:18:41.485Z,1043.84
2017-03-13T01:19:41.470Z,1043.9
2017-03-13T01:20:41.455Z,1043.87
2017-03-13T01:21:41.440Z,1043.89
2017-03-13T01:22:41.425Z,1043.87
2017-03-13T01:23:41.410Z,1043.85
2017-03-13T01:24:41.395Z,1043.86
2017-03-13T01:25:41.380Z,1043.86
2017-03-13T01:26:41.366Z,1043.83
2017-03-13T01:27:41.350Z,1043.84
2017-03-13T01:28:41.335Z,1043.87
2017-03-13T01:29:41.321Z,1043.9
2017-03-13T01:30:41.306Z,1043.9
2017-03-13T01:31:41.290Z,1043.89
2017-03-13T01:32:41.276Z,1043.89
2017-03-13T01:33:41.261Z,1043.87
2017-03-13T01:34:41.245Z,1043.91
2017-03-13T01:35:41.232Z,1043.9
2017-03-13T01:36:41.216Z,1043.9
2017-03-13T01:37:41.202Z,1043.97
2017-03-13T01:38:41.187Z,1043.94
2017-03-13T01:39:41.170Z,1043.99
2017-03-13T01:40:41.159Z,1043.94
2017-03-13T01:41:41.142Z,1043.93
2017-03-13T01:42:41.127Z,1043.96
2017-03-13T01:43:41.112Z,1043.92
2017-03-13T01:44:41.097Z,1043.87
2017-03-13T01:45:41.083Z,1043.87
2017-03-13T01:46:41.067Z,1043.87
2017-03-13T01:47:41.052Z,1043.86
2017-03-13T01:48:41.038Z,1043.85
2017-03-13T01:49:41.022Z,1043.83
2017-03-13T01:50:41.008Z,1043.81
2017-03-13T01:51:40.993Z,1043.74
2017-03-13T01:52:40.978Z,1043.76
2017-03-13T01:53:40.962Z,1043.72
2017-03-13T01:54:40.948Z,1043.74
2017-03-13T01:55:40.933Z,1043.73
2017-03-13T01:56:40.917Z,1043.68
2017-03-13T01:57:40.903Z,1043.7
2017-03-13T01:58:40.888Z,1043.69
2017-03-13T01:59:40.875Z,1043.67
2017-03-13T02:00:40.858Z,1043.68
2017-03-13T02:01:40.844Z,1043.66
2017-03-13T02:02:40.829Z,1043.68
2017-03-13T02:03:40.814Z,1043.66
2017-03-13T02:04:40.800Z,1043.65
2017-03-13T02:05:40.818Z,1043.62
2017-03-13T02:06:40.770Z,1043.65
2017-03-13T02:07:40.754Z,1043.66
2017-03-13T02:08:40.739Z,1043.61
2017-03-13T02:09:40.725Z,1043.61
2017-03-13T02:10:40.710Z,1043.63
2017-03-13T02:11:40.695Z,1043.59
2017-03-13T02:12:40.680Z,1043.57
2017-03-13T02:13:40.666Z,1043.59
2017-03-13T02:14:40.651Z,1043.59
2017-03-13T02:15:40.640Z,1043.6
2017-03-13T02:16:40.621Z,1043.6
2017-03-13T02:17:40.611Z,1043.59
2017-03-13T02:18:40.591Z,1043.58
2017-03-13T02:19:40.577Z,1043.59
2017-03-13T02:20:40.562Z,1043.58
2017-03-13T02:21:40.547Z,1043.62
2017-03-13T02:22:40.531Z,1043.65
2017-03-13T02:23:40.517Z,1043.65
2017-03-13T02:24:40.501Z,1043.68
2017-03-13T02:25:40.488Z,1043.69
2017-03-13T02:26:40.472Z,1043.71
2017-03-13T02:27:40.458Z,1043.71
2017-03-13T02:28:40.444Z,1043.76
2017-03-13T02:29:40.428Z,1043.76
2017-03-13T02:30:40.412Z,1043.79
2017-03-13T02:31:40.399Z,1043.78
2017-03-13T02:32:40.383Z,1043.76
2017-03-13T02:33:40.368Z,1043.77
2017-03-13T02:34:40.353Z,1043.76
2017-03-13T02:35:40.339Z,1043.81
2017-03-13T02:36:40.324Z,1043.8
2017-03-13T02:37:40.309Z,1043.83
2017-03-13T02:38:40.294Z,1043.84
2017-03-13T02:39:40.280Z,1043.86
2017-03-13T02:40:40.264Z,1043.9
2017-03-13T02:41:40.250Z,1043.92
2017-03-13T02:42:40.235Z,1043.87
2017-03-13T02:43:40.220Z,1043.87
2017-03-13T02:44:40.204Z,1043.9
2017-03-13T02:45:40.190Z,1043.88
2017-03-13T02:46:40.175Z,1043.88
2017-03-13T02:47:40.161Z,1043.95
2017-03-13T02:48:40.146Z,1043.95
2017-03-13T02:49:40.131Z,1044.01
2017-03-13T02:50:40.116Z,1044.01
2017-03-13T02:51:40.101Z,1044.02
2017-03-13T02:52:40.087Z,1043.99
2017-03-13T02:53:40.071Z,1044
2017-03-13T02:54:40.057Z,1044.01
2017-03-13T02:55:40.041Z,1043.99
2017-03-13T02:56:40.027Z,1044.02
2017-03-13T02:57:40.012Z,1044
2017-03-13T02:58:39.996Z,1044.04
2017-03-13T02:59:39.981Z,1044.03
2017-03-13T03:00:39.968Z,1044.07
2017-03-13T03:01:39.952Z,1044.06
2017-03-13T03:02:39.936Z,1044.13
2017-03-13T03:03:39.921Z,1044.16
2017-03-13T03:04:39.907Z,1044.15
2017-03-13T03:05:39.893Z,1044.18
2017-03-13T03:06:39.876Z,1044.21
2017-03-13T03:07:39.862Z,1044.2
2017-03-13T03:08:39.848Z,1044.22
2017-03-13T03:09:39.831Z,1044.19
2017-03-13T03:10:39.818Z,1044.17
2017-03-13T03:11:39.801Z,1044.14
2017-03-13T03:12:39.787Z,1044.14
2017-03-13T03:13:39.771Z,1044.13
2017-03-13T03:14:39.756Z,1044.16
2017-03-13T03:15:39.741Z,1044.17
2017-03-13T03:16:39.728Z,1044.19
2017-03-13T03:17:39.709Z,1044.2
2017-03-13T03:18:39.696Z,1044.27
2017-03-13T03:19:39.681Z,1044.27
2017-03-13T03:20:39.666Z,1044.31
2017-03-13T03:21:39.651Z,1044.37
2017-03-13T03:22:39.636Z,1044.39
2017-03-13T03:23:39.621Z,1044.43
2017-03-13T03:24:39.605Z,1044.4
2017-03-13T03:25:39.590Z,1044.42
2017-03-13T03:26:39.575Z,1044.46
2017-03-13T03:27:39.561Z,1044.45
2017-03-13T03:28:39.545Z,1044.45
2017-03-13T03:29:39.530Z,1044.47
2017-03-13T03:30:39.515Z,1044.45
2017-03-13T03:31:39.499Z,1044.43
2017-03-13T03:32:39.485Z,1044.41
2017-03-13T03:33:39.470Z,1044.44
2017-03-13T03:34:39.453Z,1044.41
2017-03-13T03:35:39.438Z,1044.42
2017-03-13T03:36:39.424Z,1044.41
2017-03-13T03:37:39.409Z,1044.41
2017-03-13T03:38:39.396Z,1044.39
2017-03-13T03:39:39.378Z,1044.39
2017-03-13T03:40:39.362Z,1044.39
2017-03-13T03:41:39.348Z,1044.42
2017-03-13T03:42:39.332Z,1044.43
2017-03-13T03:43:39.317Z,1044.46
2017-03-13T03:44:39.302Z,1044.51
2017-03-13T03:45:39.287Z,1044.53
2017-03-13T03:46:39.271Z,1044.52
2017-03-13T03:47:39.256Z,1044.51
2017-03-13T03:48:39.242Z,1044.53
2017-03-13T03:49:39.226Z,1044.51
2017-03-13T03:50:39.211Z,1044.5
2017-03-13T03:51:39.194Z,1044.47
2017-03-13T03:52:39.180Z,1044.51
2017-03-13T03:53:39.164Z,1044.51
2017-03-13T03:54:39.151Z,1044.52
2017-03-13T03:55:39.150Z,1044.52
2017-03-13T03:56:39.119Z,1044.51
2017-03-13T03:57:39.107Z,1044.54
2017-03-13T03:58:39.088Z,1044.57
2017-03-13T03:59:39.073Z,1044.59
2017-03-13T04:00:39.058Z,1044.58
2017-03-13T04:01:39.042Z,1044.57
2017-03-13T04:02:39.027Z,1044.55
2017-03-13T04:03:39.011Z,1044.53
2017-03-13T04:04:38.995Z,1044.55
2017-03-13T04:05:38.980Z,1044.56
2017-03-13T04:06:38.965Z,1044.57
2017-03-13T04:07:38.949Z,1044.58
2017-03-13T04:08:38.935Z,1044.57
2017-03-13T04:09:38.918Z,1044.53
2017-03-13T04:10:38.904Z,1044.54
2017-03-13T04:11:38.889Z,1044.52
2017-03-13T04:12:38.872Z,1044.56
2017-03-13T04:13:38.858Z,1044.59
2017-03-13T04:14:38.843Z,1044.62
2017-03-13T04:15:38.826Z,1044.62
2017-03-13T04:16:38.812Z,1044.64
2017-03-13T04:17:38.795Z,1044.68
2017-03-13T04:18:38.780Z,1044.69
2017-03-13T04:19:38.764Z,1044.73
2017-03-13T04:20:38.749Z,1044.68
2017-03-13T04:21:38.734Z,1044.74
2017-03-13T04:22:38.718Z,1044.7
2017-03-13T04:23:38.704Z,1044.7
2017-03-13T04:24:38.688Z,1044.69
2017-03-13T04:25:38.672Z,1044.65
2017-03-13T04:26:38.655Z,1044.65
2017-03-13T04:27:38.641Z,1044.65
2017-03-13T04:28:38.625Z,1044.67
2017-03-13T04:29:38.616Z,1044.67
2017-03-13T04:30:38.594Z,1044.7
2017-03-13T04:31:38.579Z,1044.73
2017-03-13T04:32:38.563Z,1044.74
2017-03-13T04:33:38.547Z,1044.74
2017-03-13T04:34:38.532Z,1044.76
2017-03-13T04:35:38.516Z,1044.77
2017-03-13T04:36:38.500Z,1044.76
2017-03-13T04:37:38.484Z,1044.75
2017-03-13T04:38:38.475Z,1044.75
2017-03-13T04:39:38.454Z,1044.75
2017-03-13T04:40:38.439Z,1044.77
2017-03-13T04:41:38.422Z,1044.78
2017-03-13T04:42:38.407Z,1044.78
2017-03-13T04:43:38.391Z,1044.77
2017-03-13T04:44:38.376Z,1044.78
2017-03-13T04:45:38.360Z,1044.8
2017-03-13T04:46:38.344Z,1044.84
2017-03-13T04:47:38.329Z,1044.83
2017-03-13T04:48:38.313Z,1044.82
2017-03-13T04:49:38.296Z,1044.84
2017-03-13T04:50:38.282Z,1044.82
2017-03-13T04:51:38.267Z,1044.86
2017-03-13T04:52:38.250Z,1044.88
2017-03-13T04:53:38.235Z,1044.86
2017-03-13T04:54:38.218Z,1044.88
2017-03-13T04:55:38.203Z,1044.92
2017-03-13T04:56:38.187Z,1044.89
2017-03-13T04:57:38.172Z,1044.9
2017-03-13T04:58:38.190Z,1044.91
2017-03-13T04:59:38.140Z,1044.95
2017-03-13T05:00:38.124Z,1044.98
2017-03-13T05:01:38.109Z,1044.95
2017-03-13T05:02:38.094Z,1044.98
2017-03-13T05:03:38.077Z,1044.97
2017-03-13T05:04:38.062Z,1044.98
2017-03-13T05:05:38.045Z,1044.97
2017-03-13T05:06:38.030Z,1044.97
2017-03-13T05:07:38.014Z,1044.98
2017-03-13T05:08:37.999Z,1044.93
2017-03-13T05:09:37.983Z,1044.92
2017-03-13T05:10:37.967Z,1044.92
2017-03-13T05:11:37.952Z,1044.94
2017-03-13T05:12:37.936Z,1044.92
2017-03-13T05:13:37.919Z,1044.95
2017-03-13T05:14:37.904Z,1044.95
2017-03-13T05:15:37.890Z,1044.97
2017-03-13T05:16:37.873Z,1044.96
2017-03-13T05:17:37.857Z,1044.98
2017-03-13T05:18:37.841Z,1044.99
2017-03-13T05:19:37.825Z,1045.03
2017-03-13T05:20:37.810Z,1045.04
2017-03-13T05:21:37.793Z,1045.04
2017-03-13T05:22:37.778Z,1045.06
2017-03-13T05:23:37.762Z,1045.03
2017-03-13T05:24:37.747Z,1045.06
2017-03-13T05:25:37.731Z,1045.09
2017-03-13T05:26:37.715Z,1045.11
2017-03-13T05:27:37.700Z,1045.11
2017-03-13T05:28:37.683Z,1045.12
2017-03-13T05:29:37.667Z,1045.15
2017-03-13T05:30:37.652Z,1045.14
2017-03-13T05:31:37.637Z,1045.19
2017-03-13T05:32:37.620Z,1045.16
2017-03-13T05:33:37.605Z,1045.2
2017-03-13T05:34:37.589Z,1045.17
2017-03-13T05:35:37.573Z,1045.17
2017-03-13T05:36:37.557Z,1045.19
2017-03-13T05:37:37.542Z,1045.15
2017-03-13T05:38:37.526Z,1045.13
2017-03-13T05:39:37.510Z,1045.15
2017-03-13T05:40:37.495Z,1045.14
2017-03-13T05:41:37.480Z,1045.15
2017-03-13T05:42:37.764Z,1045.13
2017-03-13T05:43:37.448Z,1045.11
2017-03-13T05:44:37.432Z,1045.1
2017-03-13T05:45:37.418Z,1045.09
2017-03-13T05:46:37.402Z,1045.06
2017-03-13T05:47:37.386Z,1045.04
2017-03-13T05:48:37.370Z,1045.05
2017-03-13T05:49:37.355Z,1044.98
2017-03-13T05:50:37.339Z,1044.95
2017-03-13T05:51:37.323Z,1044.95
2017-03-13T05:52:37.308Z,1044.9
2017-03-13T05:53:37.293Z,1044.84
2017-03-13T05:54:37.277Z,1044.81
2017-03-13T05:55:37.262Z,1044.73
2017-03-13T05:56:37.247Z,1044.67
2017-03-13T05:57:37.232Z,1044.56
2017-03-13T05:58:37.217Z,1044.45
2017-03-13T05:59:37.201Z,1044.34
2017-03-13T06:00:37.187Z,1044.28
2017-03-13T06:01:37.170Z,1044.23
2017-03-13T06:02:37.156Z,1044.15
2017-03-13T06:03:37.142Z,1044.1
2017-03-13T06:04:37.126Z,1044.07
2017-03-13T06:05:37.111Z,1044.03
2017-03-13T06:06:37.096Z,1043.99
2017-03-13T06:07:37.081Z,1043.97
2017-03-13T06:08:37.066Z,1043.93
2017-03-13T06:09:37.051Z,1043.9
2017-03-13T06:10:37.037Z,1043.85
2017-03-13T06:11:37.023Z,1043.77
2017-03-13T06:12:37.008Z,1043.7
2017-03-13T06:13:36.993Z,1043.62
2017-03-13T06:14:36.979Z,1043.49
2017-03-13T06:15:36.966Z,1043.37
2017-03-13T06:16:36.949Z,1043.26
2017-03-13T06:17:36.936Z,1043.06
2017-03-13T06:18:36.924Z,1042.87
2017-03-13T06:19:36.907Z,1042.67
2017-03-13T06:20:36.893Z,1042.44
2017-03-13T06:21:36.879Z,1042.09
2017-03-13T06:22:36.866Z,1041.88
2017-03-13T06:23:36.852Z,1041.69
2017-03-13T06:24:36.838Z,1041.64
2017-03-13T06:25:36.825Z,1041.5
2017-03-13T06:26:36.813Z,1041.49
2017-03-13T06:27:36.799Z,1041.5
2017-03-13T06:28:36.787Z,1041.43
2017-03-13T06:29:36.774Z,1041.35
2017-03-13T06:30:36.761Z,1041.24
2017-03-13T06:31:36.753Z,1041.2
2017-03-13T06:32:36.737Z,1041.24
2017-03-13T06:33:36.726Z,1041.23
2017-03-13T06:34:36.712Z,1041.2
2017-03-13T06:35:36.700Z,1041.27
2017-03-13T06:36:36.689Z,1041.36
2017-03-13T06:37:36.678Z,1041.49
2017-03-13T06:38:36.665Z,1041.57
2017-03-13T06:39:36.654Z,1041.62
2017-03-13T06:40:36.643Z,1041.67
2017-03-13T06:41:36.630Z,1041.6
2017-03-13T06:42:36.619Z,1041.59
2017-03-13T06:43:36.608Z,1041.6
2017-03-13T06:44:36.597Z,1041.57
2017-03-13T06:45:36.585Z,1041.52
2017-03-13T06:46:36.573Z,1041.5
2017-03-13T06:47:36.563Z,1041.48
2017-03-13T06:48:36.551Z,1041.44
2017-03-13T06:49:36.540Z,1041.42
2017-03-13T06:50:36.528Z,1041.48
2017-03-13T06:51:36.517Z,1041.47
2017-03-13T06:52:36.505Z,1041.48
2017-03-13T06:53:36.744Z,1041.43
2017-03-13T06:54:36.486Z,1041.43
2017-03-13T06:55:36.473Z,1041.38
2017-03-13T06:56:36.460Z,1041.36
2017-03-13T06:57:36.449Z,1041.24
2017-03-13T06:58:36.438Z,1040.87
2017-03-13T06:59:36.428Z,1040.47
2017-03-13T07:00:36.416Z,1040.08
2017-03-13T07:01:36.417Z,1039.81
2017-03-13T07:02:36.395Z,1039.52
2017-03-13T07:03:36.383Z,1039.35
2017-03-13T07:04:36.375Z,1039.16
2017-03-13T07:05:36.364Z,1038.89
2017-03-13T07:06:36.355Z,1038.6
2017-03-13T07:07:36.344Z,1038.38
2017-03-13T07:08:36.335Z,1038.16
2017-03-13T07:09:36.326Z,1037.97
2017-03-13T07:10:36.316Z,1037.88
2017-03-13T07:11:36.315Z,1037.76
2017-03-13T07:12:36.301Z,1037.8
2017-03-13T07:13:36.291Z,1037.97
2017-03-13T07:14:36.282Z,1038.09
2017-03-13T07:15:36.273Z,1038.12
2017-03-13T07:16:36.266Z,1038.11
2017-03-13T07:17:36.258Z,1038.06
2017-03-13T07:18:36.253Z,1037.96
2017-03-13T07:19:36.241Z,1037.87
2017-03-13T07:20:36.235Z,1037.92
2017-03-13T07:21:36.227Z,1037.96
2017-03-13T07:22:36.219Z,1037.91
2017-03-13T07:23:36.211Z,1038.06
2017-03-13T07:24:36.204Z,1038.18
2017-03-13T07:25:36.196Z,1038.24
2017-03-13T07:26:36.189Z,1038.36
2017-03-13T07:27:36.183Z,1038.39
2017-03-13T07:28:36.180Z,1038.47
2017-03-13T07:29:36.167Z,1038.69
2017-03-13T07:30:36.159Z,1038.75
2017-03-13T07:31:36.153Z,1038.74
2017-03-13T07:32:36.145Z,1038.69
2017-03-13T07:33:36.140Z,1038.88
2017-03-13T07:34:36.130Z,1039.05
2017-03-13T07:35:36.123Z,1039.23
2017-03-13T07:36:36.115Z,1039.32
2017-03-13T07:37:36.107Z,1039.44
2017-03-13T07:38:36.100Z,1039.55
2017-03-13T07:39:36.092Z,1039.57
2017-03-13T07:40:36.083Z,1039.52
2017-03-13T07:41:36.076Z,1039.46
2017-03-13T07:42:36.068Z,1039.53
2017-03-13T07:43:36.060Z,1039.55
2017-03-13T07:44:36.052Z,1039.61
2017-03-13T07:45:36.044Z,1039.67
2017-03-13T07:46:36.036Z,1039.58
2017-03-13T07:47:36.027Z,1039.61
2017-03-13T07:48:36.020Z,1039.62
2017-03-13T07:49:36.014Z,1039.67
2017-03-13T07:50:36.003Z,1039.76
2017-03-13T07:51:35.995Z,1039.86
2017-03-13T07:52:35.987Z,1039.93
2017-03-13T07:53:35.978Z,1040.06
2017-03-13T07:54:35.970Z,1040.11
2017-03-13T07:55:35.962Z,1040.07
2017-03-13T07:56:35.954Z,1039.94
2017-03-13T07:57:35.946Z,1039.79
2017-03-13T07:58:35.937Z,1039.66
2017-03-13T07:59:35.929Z,1039.48
2017-03-13T08:00:35.920Z,1039.31
2017-03-13T08:01:35.913Z,1039.11
2017-03-13T08:02:35.903Z,1038.9
2017-03-13T08:03:35.901Z,1038.68
2017-03-13T08:04:35.888Z,1038.42
2017-03-13T08:05:35.879Z,1038.48
2017-03-13T08:06:35.871Z,1038.66
2017-03-13T08:07:35.864Z,1038.88
2017-03-13T08:08:35.856Z,1039.04
2017-03-13T08:09:35.847Z,1039.17
2017-03-13T08:10:35.840Z,1039.32
2017-03-13T08:11:35.832Z,1039.47
2017-03-13T08:12:35.824Z,1039.48
2017-03-13T08:13:35.815Z,1039.54
2017-03-13T08:14:35.808Z,1039.55
2017-03-13T08:15:35.800Z,1039.58
2017-03-13T08:16:35.791Z,1039.63
2017-03-13T08:17:35.783Z,1039.69
2017-03-13T08:18:35.775Z,1039.68
2017-03-13T08:19:35.768Z,1039.67
2017-03-13T08:20:35.759Z,1039.66
2017-03-13T08:21:35.750Z,1039.67
2017-03-13T08:22:35.745Z,1039.64
2017-03-13T08:23:35.735Z,1039.66
2017-03-13T08:24:35.725Z,1039.63
2017-03-13T08:25:35.717Z,1039.62
2017-03-13T08:26:35.709Z,1039.53
2017-03-13T08:27:35.700Z,1039.52
2017-03-13T08:28:35.692Z,1039.45
2017-03-13T08:29:35.683Z,1039.45
2017-03-13T08:30:35.676Z,1039.36
2017-03-13T08:31:35.667Z,1039.3
2017-03-13T08:32:35.659Z,1039.28
2017-03-13T08:33:35.651Z,1039.25
2017-03-13T08:34:35.644Z,1039.16
2017-03-13T08:35:35.635Z,1039.12
2017-03-13T08:36:35.627Z,1039.03
2017-03-13T08:37:35.619Z,1038.96
2017-03-13T08:38:35.611Z,1038.97
2017-03-13T08:39:35.602Z,1039.02
2017-03-13T08:40:35.595Z,1038.99
2017-03-13T08:41:35.587Z,1038.91
2017-03-13T08:42:35.579Z,1038.85
2017-03-13T08:43:35.572Z,1038.78
2017-03-13T08:44:35.563Z,1038.71
2017-03-13T08:45:35.557Z,1038.57
2017-03-13T08:46:35.547Z,1038.55
2017-03-13T08:47:35.540Z,1038.61
2017-03-13T08:48:35.533Z,1038.6
2017-03-13T08:49:35.525Z,1038.54
2017-03-13T08:50:35.517Z,1038.47
2017-03-13T08:51:35.510Z,1038.38
2017-03-13T08:52:35.503Z,1038.35
2017-03-13T08:53:35.495Z,1038.27
2017-03-13T08:54:35.487Z,1038.25
2017-03-13T08:55:35.481Z,1038.2
2017-03-13T08:56:35.475Z,1038.14
2017-03-13T08:57:35.476Z,1038.09
2017-03-13T08:58:35.459Z,1038.08
2017-03-13T08:59:35.456Z,1038.13
2017-03-13T09:00:35.446Z,1038.19
2017-03-13T09:01:35.438Z,1038.31
2017-03-13T09:02:35.432Z,1038.37
2017-03-13T09:03:35.425Z,1038.49
2017-03-13T09:04:35.418Z,1038.55
2017-03-13T09:05:35.411Z,1038.58
2017-03-13T09:06:35.405Z,1038.72
2017-03-13T09:07:35.399Z,1038.73
2017-03-13T09:08:35.391Z,1038.79
2017-03-13T09:09:35.385Z,1038.82
2017-03-13T09:10:35.377Z,1038.82
2017-03-13T09:11:35.371Z,1038.9
2017-03-13T09:12:35.363Z,1039.04
2017-03-13T09:13:35.357Z,1039.1
2017-03-13T09:14:35.349Z,1039.15
2017-03-13T09:15:35.342Z,1039.21
2017-03-13T09:16:35.335Z,1039.31
2017-03-13T09:17:35.330Z,1039.3
2017-03-13T09:18:35.320Z,1039.32
2017-03-13T09:19:35.314Z,1039.29
2017-03-13T09:20:35.307Z,1039.25
2017-03-13T09:21:35.299Z,1039.24
2017-03-13T09:22:35.291Z,1039.21
2017-03-13T09:23:35.284Z,1039.18
2017-03-13T09:24:35.276Z,1039.17
2017-03-13T09:25:35.271Z,1039.17
2017-03-13T09:26:35.262Z,1039.14
2017-03-13T09:27:35.254Z,1039.14
2017-03-13T09:28:35.248Z,1039.13
2017-03-13T09:29:35.239Z,1039.12
2017-03-13T09:30:35.233Z,1039.14
2017-03-13T09:31:35.224Z,1039.22
2017-03-13T09:32:35.217Z,1039.3
2017-03-13T09:33:35.208Z,1039.37
2017-03-13T09:34:35.202Z,1039.51
2017-03-13T09:35:35.195Z,1039.64
2017-03-13T09:36:35.189Z,1039.69
2017-03-13T09:37:35.179Z,1039.71
2017-03-13T09:38:35.171Z,1039.72
2017-03-13T09:39:35.164Z,1039.72
2017-03-13T09:40:35.157Z,1039.76
2017-03-13T09:41:35.149Z,1039.76
2017-03-13T09:42:35.143Z,1039.8
2017-03-13T09:43:35.134Z,1039.81
2017-03-13T09:44:35.126Z,1039.73
2017-03-13T09:45:35.118Z,1039.74
2017-03-13T09:46:35.110Z,1039.63
2017-03-13T09:47:35.103Z,1039.55
2017-03-13T09:48:35.095Z,1039.52
2017-03-13T09:49:35.089Z,1039.44
2017-03-13T09:50:35.080Z,1039.43
2017-03-13T09:51:35.071Z,1039.41
2017-03-13T09:52:35.064Z,1039.38
2017-03-13T09:53:35.056Z,1039.46
2017-03-13T09:54:35.049Z,1039.46
2017-03-13T09:55:35.041Z,1039.5
2017-03-13T09:56:35.032Z,1039.56
2017-03-13T09:57:35.026Z,1039.56
2017-03-13T09:58:35.018Z,1039.58
2017-03-13T09:59:35.010Z,1039.59
2017-03-13T10:00:35.002Z,1039.6
2017-03-13T10:01:34.997Z,1039.63
2017-03-13T10:02:34.987Z,1039.64
2017-03-13T10:03:34.981Z,1039.61
2017-03-13T10:04:34.972Z,1039.6
2017-03-13T10:05:34.965Z,1039.51
2017-03-13T10:06:34.957Z,1039.46
2017-03-13T10:07:34.949Z,1039.43
2017-03-13T10:08:34.943Z,1039.4
2017-03-13T10:09:34.936Z,1039.34
2017-03-13T10:10:34.927Z,1039.34
2017-03-13T10:11:34.950Z,1039.28
2017-03-13T10:12:34.912Z,1039.18
2017-03-13T10:13:34.906Z,1039.12
2017-03-13T10:14:34.897Z,1039.12
2017-03-13T10:15:34.889Z,1039.06
2017-03-13T10:16:34.883Z,1039.02
2017-03-13T10:17:34.874Z,1038.95
2017-03-13T10:18:34.869Z,1038.88
2017-03-13T10:19:34.861Z,1038.81
2017-03-13T10:20:34.854Z,1038.72
2017-03-13T10:21:34.845Z,1038.68
2017-03-13T10:22:34.838Z,1038.73
2017-03-13T10:23:34.831Z,1038.66
2017-03-13T10:24:34.824Z,1038.61
2017-03-13T10:25:34.821Z,1038.55
2017-03-13T10:26:34.811Z,1038.44
2017-03-13T10:27:34.803Z,1038.37
2017-03-13T10:28:34.795Z,1038.31
2017-03-13T10:29:34.789Z,1038.23
2017-03-13T10:30:34.782Z,1038.18
2017-03-13T10:31:34.775Z,1038.11
2017-03-13T10:32:34.768Z,1038.04
2017-03-13T10:33:34.761Z,1037.97
2017-03-13T10:34:34.755Z,1037.95
2017-03-13T10:35:34.748Z,1037.9
2017-03-13T10:36:34.742Z,1037.97
2017-03-13T10:37:34.737Z,1037.95
2017-03-13T10:38:34.731Z,1037.97
2017-03-13T10:39:34.724Z,1037.98
2017-03-13T10:40:34.719Z,1037.99
2017-03-13T10:41:34.711Z,1038
2017-03-13T10:42:34.706Z,1037.95
2017-03-13T10:43:34.699Z,1037.94
2017-03-13T10:44:34.692Z,1037.93
2017-03-13T10:45:34.689Z,1037.86
2017-03-13T10:46:34.681Z,1037.88
2017-03-13T10:47:34.675Z,1037.86
2017-03-13T10:48:34.669Z,1037.88
2017-03-13T10:49:34.662Z,1037.81
2017-03-13T10:50:34.655Z,1037.84
2017-03-13T10:51:34.650Z,1037.79
2017-03-13T10:52:34.645Z,1037.8
2017-03-13T10:53:34.638Z,1037.87
2017-03-13T10:54:34.632Z,1037.9
2017-03-13T10:55:34.626Z,1037.97
2017-03-13T10:56:34.621Z,1037.95
2017-03-13T10:57:34.614Z,1037.92
2017-03-13T10:58:34.608Z,1037.87
2017-03-13T10:59:34.605Z,1037.84
2017-03-13T11:00:34.596Z,1037.92
2017-03-13T11:01:34.589Z,1037.91
2017-03-13T11:02:34.584Z,1037.98
2017-03-13T11:03:34.578Z,1038.04
2017-03-13T11:04:34.571Z,1038.13
2017-03-13T11:05:34.567Z,1038.14
2017-03-13T11:06:34.561Z,1038.18
2017-03-13T11:07:34.554Z,1038.11
2017-03-13T11:08:34.548Z,1038.13
2017-03-13T11:09:34.542Z,1038.1
2017-03-13T11:10:34.535Z,1038
2017-03-13T11:11:34.532Z,1037.99
2017-03-13T11:12:34.524Z,1037.96
2017-03-13T11:13:34.517Z,1037.89
2017-03-13T11:14:34.513Z,1037.87
2017-03-13T11:15:34.506Z,1037.82
2017-03-13T11:16:34.500Z,1037.76
2017-03-13T11:17:34.495Z,1037.74
2017-03-13T11:18:34.490Z,1037.62
2017-03-13T11:19:34.484Z,1037.61
2017-03-13T11:20:34.479Z,1037.57
2017-03-13T11:21:34.471Z,1037.59
2017-03-13T11:22:34.465Z,1037.51
2017-03-13T11:23:34.460Z,1037.49
2017-03-13T11:24:34.454Z,1037.46
2017-03-13T11:25:34.448Z,1037.41
2017-03-13T11:26:34.441Z,1037.37
2017-03-13T11:27:34.436Z,1037.31
2017-03-13T11:28:34.430Z,1037.25
2017-03-13T11:29:34.425Z,1037.28
2017-03-13T11:30:34.418Z,1037.3
2017-03-13T11:31:34.414Z,1037.3
2017-03-13T11:32:34.408Z,1037.22
2017-03-13T11:33:34.405Z,1037.25
2017-03-13T11:34:34.397Z,1037.21
2017-03-13T11:35:34.392Z,1037.17
2017-03-13T11:36:34.387Z,1037.15
2017-03-13T11:37:34.380Z,1037.18
2017-03-13T11:38:34.375Z,1037.18
2017-03-13T11:39:34.370Z,1037.14
2017-03-13T11:40:34.364Z,1037.13
2017-03-13T11:41:34.360Z,1037.14
2017-03-13T11:42:34.354Z,1037.06
2017-03-13T11:43:34.348Z,1037.08
2017-03-13T11:44:34.343Z,1037.04
2017-03-13T11:45:34.337Z,1037.03
2017-03-13T11:46:34.332Z,1037
2017-03-13T11:47:34.327Z,1036.96
2017-03-13T11:48:34.321Z,1036.97
2017-03-13T11:49:34.316Z,1036.98
2017-03-13T11:50:34.309Z,1036.94
2017-03-13T11:51:34.307Z,1037
2017-03-13T11:52:34.300Z,1036.98
2017-03-13T11:53:34.294Z,1036.93
2017-03-13T11:54:34.289Z,1036.9
2017-03-13T11:55:34.286Z,1036.91
2017-03-13T11:56:34.278Z,1036.92
2017-03-13T11:57:34.274Z,1036.95
2017-03-13T11:58:34.269Z,1036.96
2017-03-13T11:59:34.264Z,1036.96
2017-03-13T12:00:34.259Z,1037.03
2017-03-13T12:01:34.252Z,1037.07
2017-03-13T12:02:34.247Z,1037.12
2017-03-13T12:03:34.243Z,1037.2
2017-03-13T12:04:34.238Z,1037.27
2017-03-13T12:05:34.232Z,1037.35
2017-03-13T12:06:34.226Z,1037.45
2017-03-13T12:07:34.220Z,1037.5
2017-03-13T12:08:34.216Z,1037.57